Big Bear Station Historical Data
Daily Summary for April 6, 2019 Units:  English    Metric   Both
Next Day »
Daily Weekly Monthly Yearly Custom
  High: Low: Average:
Temperature: 59.0 °F 27.9 °F 42 °F
Dew Point: 34.9 °F 16.0 °F 27.4 °F
Humidity: 96% 22% 63%
Wind Speed: 7.3mph 0.0mph 1.5mph
Wind Gust: -999.0mph - -
Wind- - West
Pressure: 23.61 in 23.41 in -
Precipitation: 0.00 in    
Historical Graphs
 
 
Tabular Data for April 6, 2019
Time Temperature Dew Point Pressure Wind Wind Speed Wind Gust Humidity Rainfall Rate (Hourly)
00:11 32.5 °F 30.4 °F 23.43 in Calm   -999.0 mph 92% 0.00 in
00:27 32.0 °F 29.9 °F 23.43 in Calm   -999.0 mph 92% 0.00 in
00:42 32.4 °F 30.3 °F 23.43 in Calm   -999.0 mph 92% 0.00 in
00:57 32.0 °F 29.9 °F 23.42 in Calm   -999.0 mph 92% 0.00 in
01:12 31.5 °F 29.4 °F 23.42 in Calm   -999.0 mph 92% 0.00 in
01:27 30.9 °F 28.9 °F 23.42 in Calm   -999.0 mph 92% 0.00 in
01:43 30.6 °F 28.6 °F 23.42 in Calm   -999.0 mph 92% 0.00 in
01:58 30.6 °F 28.3 °F 23.42 in Calm   -999.0 mph 91% 0.00 in
02:13 30.6 °F 28.3 °F 23.42 in SSE 1.7 mph -999.0 mph 91% 0.00 in
02:28 30.2 °F 27.9 °F 23.41 in Calm   -999.0 mph 91% 0.00 in
02:43 30.2 °F 27.9 °F 23.42 in Calm   -999.0 mph 91% 0.00 in
02:59 29.7 °F 27.4 °F 23.42 in Calm   -999.0 mph 91% 0.00 in
03:14 29.3 °F 27.3 °F 23.42 in Calm   -999.0 mph 92% 0.00 in
03:29 28.9 °F 26.9 °F 23.43 in Calm   -999.0 mph 92% 0.00 in
03:44 28.8 °F 27.0 °F 23.43 in Calm   -999.0 mph 93% 0.00 in
03:59 28.6 °F 26.8 °F 23.43 in Calm   -999.0 mph 93% 0.00 in
04:15 28.6 °F 27.1 °F 23.43 in Calm   -999.0 mph 94% 0.00 in
04:30 28.9 °F 27.4 °F 23.44 in SSE 2.7 mph -999.0 mph 94% 0.00 in
04:45 28.8 °F 27.3 °F 23.44 in South 1.7 mph -999.0 mph 94% 0.00 in
05:00 28.9 °F 27.4 °F 23.44 in Calm   -999.0 mph 94% 0.00 in
05:16 28.8 °F 27.3 °F 23.44 in Calm   -999.0 mph 94% 0.00 in
05:31 28.6 °F 27.1 °F 23.44 in Calm   -999.0 mph 94% 0.00 in
05:47 28.0 °F 26.5 °F 23.45 in Calm   -999.0 mph 94% 0.00 in
06:02 28.0 °F 26.5 °F 23.44 in Calm   -999.0 mph 94% 0.00 in
06:17 27.9 °F 26.4 °F 23.45 in Calm   -999.0 mph 94% 0.00 in
06:32 27.9 °F 26.7 °F 23.45 in Calm   -999.0 mph 95% 0.00 in
06:47 28.0 °F 27.0 °F 23.45 in Calm   -999.0 mph 96% 0.00 in
07:03 28.4 °F 27.4 °F 23.45 in Calm   -999.0 mph 96% 0.00 in
07:18 28.9 °F 27.9 °F 23.46 in Calm   -999.0 mph 96% 0.00 in
07:33 28.9 °F 27.9 °F 23.47 in Calm   -999.0 mph 96% 0.00 in
07:48 30.0 °F 29.0 °F 23.47 in Calm   -999.0 mph 96% 0.00 in
08:03 33.6 °F 31.3 °F 23.48 in Calm   -999.0 mph 91% 0.00 in
08:19 34.9 °F 33.1 °F 23.48 in Calm   -999.0 mph 93% 0.00 in
08:34 35.8 °F 33.4 °F 23.49 in Calm   -999.0 mph 91% 0.00 in
08:50 38.7 °F 34.9 °F 23.49 in Calm   -999.0 mph 86% 0.00 in
09:05 41.0 °F 29.8 °F 23.50 in Calm   -999.0 mph 64% 0.00 in
09:20 42.8 °F 27.7 °F 23.50 in Calm   -999.0 mph 55% 0.00 in
09:35 43.9 °F 27.4 °F 23.50 in Calm   -999.0 mph 52% 0.00 in
09:50 45.1 °F 24.5 °F 23.50 in NW 2.7 mph -999.0 mph 44% 0.00 in
10:06 46.8 °F 24.9 °F 23.51 in NNW 2.7 mph -999.0 mph 42% 0.00 in
10:21 47.5 °F 26.7 °F 23.51 in NW 6.3 mph -999.0 mph 44% 0.00 in
10:36 48.6 °F 24.7 °F 23.51 in NW 3.2 mph -999.0 mph 39% 0.00 in
10:51 50.4 °F 23.8 °F 23.51 in NNE 3.7 mph -999.0 mph 35% 0.00 in
11:06 50.7 °F 26.0 °F 23.51 in NNW 5.8 mph -999.0 mph 38% 0.00 in
11:22 51.6 °F 21.2 °F 23.51 in NNW 6.3 mph -999.0 mph 30% 0.00 in
11:37 53.1 °F 25.5 °F 23.52 in WNW 5.8 mph -999.0 mph 34% 0.00 in
11:52 53.8 °F 23.8 °F 23.52 in NW 7.3 mph -999.0 mph 31% 0.00 in
12:08 55.0 °F 21.6 °F 23.51 in NW 4.2 mph -999.0 mph 27% 0.00 in
12:23 54.9 °F 19.7 °F 23.51 in NW 6.8 mph -999.0 mph 25% 0.00 in
12:39 54.0 °F 16.0 °F 23.52 in NE 2.7 mph -999.0 mph 22% 0.00 in
12:54 57.0 °F 21.5 °F 23.52 in WNW 6.3 mph -999.0 mph 25% 0.00 in
13:10 56.5 °F 21.1 °F 23.53 in North 3.2 mph -999.0 mph 25% 0.00 in
13:25 55.9 °F 23.2 °F 23.52 in NW 4.7 mph -999.0 mph 28% 0.00 in
13:40 55.8 °F 22.3 °F 23.52 in NNW 3.7 mph -999.0 mph 27% 0.00 in
14:11 55.4 °F 22.8 °F 23.52 in NW 6.3 mph -999.0 mph 28% 0.00 in
14:26 56.7 °F 20.3 °F 23.52 in NNW 3.2 mph -999.0 mph 24% 0.00 in
14:41 55.9 °F 21.5 °F 23.52 in NNW 4.2 mph -999.0 mph 26% 0.00 in
14:56 56.3 °F 20.9 °F 23.52 in NNW 2.7 mph -999.0 mph 25% 0.00 in
15:12 56.1 °F 18.8 °F 23.52 in WNW 3.7 mph -999.0 mph 23% 0.00 in
15:28 55.9 °F 20.6 °F 23.52 in NNW 6.8 mph -999.0 mph 25% 0.00 in
15:43 56.1 °F 20.7 °F 23.52 in NW 5.3 mph -999.0 mph 25% 0.00 in
15:58 55.9 °F 21.5 °F 23.52 in NW 2.2 mph -999.0 mph 26% 0.00 in
16:13 55.0 °F 24.1 °F 23.53 in North 6.3 mph -999.0 mph 30% 0.00 in
16:28 56.3 °F 24.4 °F 23.53 in ENE 2.2 mph -999.0 mph 29% 0.00 in
16:44 56.5 °F 27.0 °F 23.53 in NE 3.2 mph -999.0 mph 32% 0.00 in
16:59 59.0 °F 27.6 °F 23.54 in NW 1.1 mph -999.0 mph 30% 0.00 in
17:14 59.0 °F 28.4 °F 23.54 in NW 3.7 mph -999.0 mph 31% 0.00 in
17:29 57.0 °F 29.6 °F 23.53 in Calm   -999.0 mph 35% 0.00 in
17:44 58.5 °F 30.2 °F 23.53 in ESE 3.7 mph -999.0 mph 34% 0.00 in
18:00 54.3 °F 29.9 °F 23.52 in Calm   -999.0 mph 39% 0.00 in
18:15 52.5 °F 31.2 °F 23.52 in Calm   -999.0 mph 44% 0.00 in
18:30 51.1 °F 31.6 °F 23.53 in WNW 1.1 mph -999.0 mph 47% 0.00 in
18:46 49.6 °F 31.7 °F 23.52 in Calm   -999.0 mph 50% 0.00 in
19:01 48.4 °F 31.1 °F 23.54 in Calm   -999.0 mph 51% 0.00 in
19:17 47.3 °F 31.0 °F 23.54 in Calm   -999.0 mph 53% 0.00 in
19:32 46.0 °F 30.3 °F 23.54 in Calm   -999.0 mph 54% 0.00 in
19:47 45.3 °F 31.0 °F 23.54 in ENE 3.7 mph -999.0 mph 57% 0.00 in
20:02 44.4 °F 31.0 °F 23.55 in SSW 1.7 mph -999.0 mph 59% 0.00 in
20:17 43.7 °F 30.3 °F 23.55 in Calm   -999.0 mph 59% 0.00 in
20:33 43.5 °F 30.1 °F 23.56 in Calm   -999.0 mph 59% 0.00 in
20:48 42.6 °F 30.5 °F 23.57 in Calm   -999.0 mph 62% 0.00 in
21:03 41.9 °F 30.2 °F 23.57 in Calm   -999.0 mph 63% 0.00 in
21:18 41.5 °F 30.6 °F 23.58 in Calm   -999.0 mph 65% 0.00 in
21:33 40.6 °F 30.5 °F 23.59 in Calm   -999.0 mph 67% 0.00 in
21:49 39.9 °F 30.9 °F 23.59 in Calm   -999.0 mph 70% 0.00 in
22:04 39.4 °F 31.1 °F 23.59 in Calm   -999.0 mph 72% 0.00 in
22:19 38.8 °F 31.2 °F 23.59 in Calm   -999.0 mph 74% 0.00 in
22:34 38.7 °F 31.1 °F 23.59 in Calm   -999.0 mph 74% 0.00 in
22:50 38.1 °F 30.9 °F 23.59 in Calm   -999.0 mph 75% 0.00 in
23:05 37.2 °F 31.0 °F 23.60 in Calm   -999.0 mph 78% 0.00 in
23:20 37.2 °F 31.3 °F 23.61 in Calm   -999.0 mph 79% 0.00 in
23:35 36.7 °F 30.8 °F 23.61 in Calm   -999.0 mph 79% 0.00 in
23:50 36.7 °F 31.1 °F 23.61 in Calm   -999.0 mph 80% 0.00 in
Big Bear CA Weather